Terminal Aerodrome Forecast
Issued by NWS Boston, MA

Home | Current Version | Previous Version | Text Only | Print | Product List | Glossary On
Versions: 1 2 3 4 5 6 7 8 9 10 11 12 13 14 15 16 17 18 19 20 21 22 23 24 25 26 27 28 29 30 31 32 33 34 35 36 37 38 39 40 41 42
000
FTUS41 KBOX 072033 AAA
TAFBOS
TAF AMD
KBOS 072033Z 0721/0824 20012G21KT P6SM BKN035
     FM080000 20012KT P6SM BKN025
     FM080600 22005KT 5SM BR SCT010 BKN025
     FM081200 23009KT P6SM BKN060
     FM081800 27007KT P6SM -SHRA OVC060
     FM082000 31006KT P6SM BKN035=

USA.gov is the U.S. government's official web portal to all federal, state and local government web resources and services.